sensor_id;sensor_type;location;lat;lon;timestamp;P1;durP1;ratioP1;P2;durP2;ratioP2
74510;SDS011;62991;50.040;18.400;2023-05-18T00:02:51;9.52;;;3.55;;
74510;SDS011;62991;50.040;18.400;2023-05-18T00:05:52;9.68;;;3.97;;
74510;SDS011;62991;50.040;18.400;2023-05-18T00:08:53;7.45;;;3.00;;
74510;SDS011;62991;50.040;18.400;2023-05-18T00:11:53;6.90;;;3.38;;
74510;SDS011;62991;50.040;18.400;2023-05-18T00:14:55;5.45;;;2.83;;
74510;SDS011;62991;50.040;18.400;2023-05-18T00:17:55;5.60;;;2.28;;
74510;SDS011;62991;50.040;18.400;2023-05-18T00:20:57;4.85;;;2.30;;
74510;SDS011;62991;50.040;18.400;2023-05-18T00:23:58;5.97;;;2.88;;
74510;SDS011;62991;50.040;18.400;2023-05-18T00:26:58;5.07;;;2.72;;
74510;SDS011;62991;50.040;18.400;2023-05-18T00:29:59;6.95;;;3.72;;
74510;SDS011;62991;50.040;18.400;2023-05-18T00:33:00;5.70;;;2.70;;
74510;SDS011;62991;50.040;18.400;2023-05-18T00:36:00;4.30;;;2.88;;
74510;SDS011;62991;50.040;18.400;2023-05-18T00:39:01;5.20;;;2.50;;
74510;SDS011;62991;50.040;18.400;2023-05-18T00:42:03;4.72;;;2.72;;
74510;SDS011;62991;50.040;18.400;2023-05-18T00:45:04;5.50;;;2.45;;
74510;SDS011;62991;50.040;18.400;2023-05-18T00:48:05;4.75;;;2.50;;
74510;SDS011;62991;50.040;18.400;2023-05-18T00:51:06;5.50;;;2.53;;
74510;SDS011;62991;50.040;18.400;2023-05-18T00:54:07;3.42;;;1.90;;
74510;SDS011;62991;50.040;18.400;2023-05-18T00:57:08;5.80;;;2.20;;
74510;SDS011;62991;50.040;18.400;2023-05-18T01:00:09;7.18;;;2.80;;
74510;SDS011;62991;50.040;18.400;2023-05-18T01:03:12;5.03;;;2.50;;
74510;SDS011;62991;50.040;18.400;2023-05-18T01:06:14;3.90;;;2.10;;
74510;SDS011;62991;50.040;18.400;2023-05-18T01:09:14;4.60;;;2.30;;
74510;SDS011;62991;50.040;18.400;2023-05-18T01:12:17;4.78;;;2.67;;
74510;SDS011;62991;50.040;18.400;2023-05-18T01:15:31;5.57;;;2.45;;
74510;SDS011;62991;50.040;18.400;2023-05-18T01:18:40;6.05;;;2.55;;
74510;SDS011;62991;50.040;18.400;2023-05-18T01:21:56;4.60;;;2.15;;
74510;SDS011;62991;50.040;18.400;2023-05-18T01:28:24;5.25;;;2.58;;
74510;SDS011;62991;50.040;18.400;2023-05-18T01:31:28;3.88;;;2.17;;
74510;SDS011;62991;50.040;18.400;2023-05-18T01:34:30;7.25;;;2.53;;
74510;SDS011;62991;50.040;18.400;2023-05-18T01:37:30;5.13;;;2.42;;
74510;SDS011;62991;50.040;18.400;2023-05-18T01:40:36;5.97;;;2.50;;
74510;SDS011;62991;50.040;18.400;2023-05-18T01:43:59;3.95;;;2.13;;
74510;SDS011;62991;50.040;18.400;2023-05-18T01:47:18;6.15;;;2.30;;
74510;SDS011;62991;50.040;18.400;2023-05-18T01:50:21;4.88;;;2.40;;
74510;SDS011;62991;50.040;18.400;2023-05-18T01:53:32;4.97;;;2.42;;
74510;SDS011;62991;50.040;18.400;2023-05-18T01:56:38;5.38;;;2.20;;
74510;SDS011;62991;50.040;18.400;2023-05-18T01:59:39;3.72;;;2.00;;
74510;SDS011;62991;50.040;18.400;2023-05-18T02:02:42;5.03;;;2.35;;
74510;SDS011;62991;50.040;18.400;2023-05-18T02:05:42;5.03;;;2.05;;
74510;SDS011;62991;50.040;18.400;2023-05-18T02:08:43;5.00;;;2.13;;
74510;SDS011;62991;50.040;18.400;2023-05-18T02:11:44;5.13;;;2.08;;
74510;SDS011;62991;50.040;18.400;2023-05-18T02:14:45;4.97;;;2.40;;
74510;SDS011;62991;50.040;18.400;2023-05-18T02:17:46;4.28;;;2.05;;
74510;SDS011;62991;50.040;18.400;2023-05-18T02:20:47;4.32;;;2.25;;
74510;SDS011;62991;50.040;18.400;2023-05-18T02:23:48;4.75;;;2.20;;
74510;SDS011;62991;50.040;18.400;2023-05-18T02:26:49;3.90;;;1.98;;
74510;SDS011;62991;50.040;18.400;2023-05-18T02:29:50;3.88;;;2.33;;
74510;SDS011;62991;50.040;18.400;2023-05-18T02:32:51;3.95;;;2.00;;
74510;SDS011;62991;50.040;18.400;2023-05-18T02:35:51;4.30;;;2.10;;
74510;SDS011;62991;50.040;18.400;2023-05-18T02:38:52;4.80;;;2.20;;
74510;SDS011;62991;50.040;18.400;2023-05-18T02:41:53;4.80;;;2.30;;
74510;SDS011;62991;50.040;18.400;2023-05-18T02:44:53;6.28;;;2.38;;
74510;SDS011;62991;50.040;18.400;2023-05-18T02:47:55;5.00;;;2.38;;
74510;SDS011;62991;50.040;18.400;2023-05-18T02:50:55;3.38;;;1.48;;
74510;SDS011;62991;50.040;18.400;2023-05-18T02:53:57;5.25;;;1.77;;
74510;SDS011;62991;50.040;18.400;2023-05-18T02:56:58;3.95;;;2.03;;
74510;SDS011;62991;50.040;18.400;2023-05-18T02:59:59;3.33;;;2.13;;
74510;SDS011;62991;50.040;18.400;2023-05-18T03:02:59;6.72;;;2.15;;
74510;SDS011;62991;50.040;18.400;2023-05-18T03:06:00;3.75;;;2.00;;
74510;SDS011;62991;50.040;18.400;2023-05-18T03:09:01;5.13;;;1.50;;
74510;SDS011;62991;50.040;18.400;2023-05-18T03:12:02;4.63;;;2.08;;
74510;SDS011;62991;50.040;18.400;2023-05-18T03:15:03;3.90;;;1.95;;
74510;SDS011;62991;50.040;18.400;2023-05-18T03:18:04;3.55;;;1.92;;
74510;SDS011;62991;50.040;18.400;2023-05-18T03:21:04;3.08;;;1.65;;
74510;SDS011;62991;50.040;18.400;2023-05-18T03:24:06;3.80;;;1.45;;
74510;SDS011;62991;50.040;18.400;2023-05-18T03:27:07;3.55;;;1.60;;
74510;SDS011;62991;50.040;18.400;2023-05-18T03:30:07;3.40;;;1.85;;
74510;SDS011;62991;50.040;18.400;2023-05-18T03:33:08;3.03;;;1.77;;
74510;SDS011;62991;50.040;18.400;2023-05-18T03:36:09;3.08;;;1.48;;
74510;SDS011;62991;50.040;18.400;2023-05-18T03:39:11;3.30;;;1.50;;
74510;SDS011;62991;50.040;18.400;2023-05-18T03:42:12;4.82;;;1.40;;
74510;SDS011;62991;50.040;18.400;2023-05-18T03:45:13;3.42;;;1.83;;
74510;SDS011;62991;50.040;18.400;2023-05-18T03:48:14;4.13;;;1.70;;
74510;SDS011;62991;50.040;18.400;2023-05-18T03:51:15;3.90;;;1.95;;
74510;SDS011;62991;50.040;18.400;2023-05-18T03:54:15;7.38;;;2.25;;
74510;SDS011;62991;50.040;18.400;2023-05-18T03:57:16;5.13;;;1.95;;
74510;SDS011;62991;50.040;18.400;2023-05-18T04:00:17;4.57;;;2.00;;
74510;SDS011;62991;50.040;18.400;2023-05-18T04:03:18;3.92;;;1.55;;
74510;SDS011;62991;50.040;18.400;2023-05-18T04:06:20;5.22;;;1.77;;
74510;SDS011;62991;50.040;18.400;2023-05-18T04:09:22;5.60;;;1.80;;
74510;SDS011;62991;50.040;18.400;2023-05-18T04:12:23;6.20;;;1.73;;
74510;SDS011;62991;50.040;18.400;2023-05-18T04:15:24;3.80;;;1.60;;
74510;SDS011;62991;50.040;18.400;2023-05-18T04:18:24;7.25;;;2.55;;
74510;SDS011;62991;50.040;18.400;2023-05-18T04:21:29;4.35;;;2.08;;
74510;SDS011;62991;50.040;18.400;2023-05-18T04:24:34;8.15;;;2.42;;
74510;SDS011;62991;50.040;18.400;2023-05-18T04:27:35;5.28;;;1.90;;
74510;SDS011;62991;50.040;18.400;2023-05-18T04:30:36;5.47;;;1.80;;
74510;SDS011;62991;50.040;18.400;2023-05-18T04:33:36;4.63;;;2.08;;
74510;SDS011;62991;50.040;18.400;2023-05-18T04:36:37;6.90;;;1.80;;
74510;SDS011;62991;50.040;18.400;2023-05-18T04:42:42;5.15;;;2.05;;
74510;SDS011;62991;50.040;18.400;2023-05-18T04:45:46;6.82;;;1.85;;
74510;SDS011;62991;50.040;18.400;2023-05-18T04:48:50;5.30;;;1.90;;
74510;SDS011;62991;50.040;18.400;2023-05-18T04:51:52;5.72;;;1.88;;
74510;SDS011;62991;50.040;18.400;2023-05-18T04:54:57;4.72;;;1.65;;
74510;SDS011;62991;50.040;18.400;2023-05-18T04:57:58;5.88;;;2.25;;
74510;SDS011;62991;50.040;18.400;2023-05-18T05:01:00;3.88;;;1.80;;
74510;SDS011;62991;50.040;18.400;2023-05-18T05:04:00;5.00;;;1.80;;
74510;SDS011;62991;50.040;18.400;2023-05-18T05:07:01;5.80;;;2.30;;
74510;SDS011;62991;50.040;18.400;2023-05-18T05:10:02;6.88;;;1.83;;
74510;SDS011;62991;50.040;18.400;2023-05-18T05:13:03;4.93;;;1.95;;
74510;SDS011;62991;50.040;18.400;2023-05-18T05:16:04;4.72;;;1.70;;
74510;SDS011;62991;50.040;18.400;2023-05-18T05:19:05;10.77;;;2.40;;
74510;SDS011;62991;50.040;18.400;2023-05-18T05:22:06;5.40;;;1.98;;
74510;SDS011;62991;50.040;18.400;2023-05-18T05:25:06;6.35;;;2.50;;
74510;SDS011;62991;50.040;18.400;2023-05-18T05:28:07;6.22;;;2.30;;
74510;SDS011;62991;50.040;18.400;2023-05-18T05:31:08;10.70;;;2.65;;
74510;SDS011;62991;50.040;18.400;2023-05-18T05:34:08;9.10;;;3.28;;
74510;SDS011;62991;50.040;18.400;2023-05-18T05:37:11;9.00;;;3.03;;
74510;SDS011;62991;50.040;18.400;2023-05-18T05:40:12;21.25;;;6.32;;
74510;SDS011;62991;50.040;18.400;2023-05-18T05:43:12;17.88;;;4.57;;
74510;SDS011;62991;50.040;18.400;2023-05-18T05:46:13;20.30;;;4.32;;
74510;SDS011;62991;50.040;18.400;2023-05-18T05:49:13;10.75;;;2.67;;
74510;SDS011;62991;50.040;18.400;2023-05-18T05:52:14;22.27;;;6.00;;
74510;SDS011;62991;50.040;18.400;2023-05-18T05:55:15;78.57;;;27.23;;
74510;SDS011;62991;50.040;18.400;2023-05-18T05:58:16;88.45;;;31.45;;
74510;SDS011;62991;50.040;18.400;2023-05-18T06:01:17;88.15;;;32.90;;
74510;SDS011;62991;50.040;18.400;2023-05-18T06:04:17;86.68;;;32.22;;
74510;SDS011;62991;50.040;18.400;2023-05-18T06:07:18;102.93;;;41.53;;
74510;SDS011;62991;50.040;18.400;2023-05-18T06:10:19;115.60;;;42.90;;
74510;SDS011;62991;50.040;18.400;2023-05-18T06:13:19;148.60;;;61.08;;
74510;SDS011;62991;50.040;18.400;2023-05-18T06:16:20;179.52;;;75.75;;
74510;SDS011;62991;50.040;18.400;2023-05-18T06:19:21;173.07;;;71.78;;
74510;SDS011;62991;50.040;18.400;2023-05-18T06:22:22;173.48;;;73.65;;
74510;SDS011;62991;50.040;18.400;2023-05-18T06:25:22;147.20;;;56.80;;
74510;SDS011;62991;50.040;18.400;2023-05-18T06:28:23;165.07;;;69.55;;
74510;SDS011;62991;50.040;18.400;2023-05-18T06:31:24;157.02;;;66.70;;
74510;SDS011;62991;50.040;18.400;2023-05-18T06:34:24;144.38;;;63.70;;
74510;SDS011;62991;50.040;18.400;2023-05-18T06:37:25;145.43;;;63.88;;
74510;SDS011;62991;50.040;18.400;2023-05-18T06:40:26;147.70;;;63.90;;
74510;SDS011;62991;50.040;18.400;2023-05-18T06:43:27;152.20;;;67.70;;
74510;SDS011;62991;50.040;18.400;2023-05-18T06:46:28;140.68;;;61.72;;
74510;SDS011;62991;50.040;18.400;2023-05-18T06:49:29;143.55;;;61.28;;
74510;SDS011;62991;50.040;18.400;2023-05-18T06:52:29;141.57;;;61.42;;
74510;SDS011;62991;50.040;18.400;2023-05-18T06:55:31;132.15;;;60.00;;
74510;SDS011;62991;50.040;18.400;2023-05-18T06:58:32;137.43;;;60.25;;
74510;SDS011;62991;50.040;18.400;2023-05-18T07:01:33;78.07;;;32.45;;
74510;SDS011;62991;50.040;18.400;2023-05-18T07:04:34;121.38;;;48.20;;
74510;SDS011;62991;50.040;18.400;2023-05-18T07:07:35;90.60;;;39.33;;
74510;SDS011;62991;50.040;18.400;2023-05-18T07:10:36;100.65;;;42.80;;
74510;SDS011;62991;50.040;18.400;2023-05-18T07:13:37;109.07;;;44.65;;
74510;SDS011;62991;50.040;18.400;2023-05-18T07:16:37;105.93;;;43.75;;
74510;SDS011;62991;50.040;18.400;2023-05-18T07:19:38;111.88;;;46.17;;
74510;SDS011;62991;50.040;18.400;2023-05-18T07:22:39;94.85;;;38.47;;
74510;SDS011;62991;50.040;18.400;2023-05-18T07:25:40;99.18;;;41.42;;
74510;SDS011;62991;50.040;18.400;2023-05-18T07:28:40;91.47;;;36.45;;
74510;SDS011;62991;50.040;18.400;2023-05-18T07:31:41;100.07;;;42.75;;
74510;SDS011;62991;50.040;18.400;2023-05-18T07:34:42;88.45;;;37.60;;
74510;SDS011;62991;50.040;18.400;2023-05-18T07:37:45;86.20;;;33.28;;
74510;SDS011;62991;50.040;18.400;2023-05-18T07:40:46;86.57;;;36.78;;
74510;SDS011;62991;50.040;18.400;2023-05-18T07:43:47;83.82;;;34.80;;
74510;SDS011;62991;50.040;18.400;2023-05-18T07:46:48;81.18;;;35.35;;
74510;SDS011;62991;50.040;18.400;2023-05-18T07:49:49;99.38;;;41.80;;
74510;SDS011;62991;50.040;18.400;2023-05-18T07:52:49;59.70;;;24.08;;
74510;SDS011;62991;50.040;18.400;2023-05-18T07:55:50;76.07;;;28.13;;
74510;SDS011;62991;50.040;18.400;2023-05-18T07:58:51;72.05;;;32.92;;
74510;SDS011;62991;50.040;18.400;2023-05-18T08:01:52;84.80;;;35.80;;
74510;SDS011;62991;50.040;18.400;2023-05-18T08:04:52;80.95;;;34.25;;
74510;SDS011;62991;50.040;18.400;2023-05-18T08:07:53;69.28;;;29.92;;
74510;SDS011;62991;50.040;18.400;2023-05-18T08:10:53;76.30;;;32.92;;
74510;SDS011;62991;50.040;18.400;2023-05-18T08:13:54;71.90;;;30.45;;
74510;SDS011;62991;50.040;18.400;2023-05-18T08:16:55;83.13;;;35.40;;
74510;SDS011;62991;50.040;18.400;2023-05-18T08:19:56;59.42;;;24.83;;
74510;SDS011;62991;50.040;18.400;2023-05-18T08:22:56;77.00;;;32.78;;
74510;SDS011;62991;50.040;18.400;2023-05-18T08:25:57;69.07;;;32.90;;
74510;SDS011;62991;50.040;18.400;2023-05-18T08:28:59;63.50;;;24.98;;
74510;SDS011;62991;50.040;18.400;2023-05-18T08:31:59;66.63;;;30.30;;
74510;SDS011;62991;50.040;18.400;2023-05-18T08:35:00;71.30;;;31.67;;
74510;SDS011;62991;50.040;18.400;2023-05-18T08:38:03;61.15;;;27.40;;
74510;SDS011;62991;50.040;18.400;2023-05-18T08:41:07;68.53;;;30.83;;
74510;SDS011;62991;50.040;18.400;2023-05-18T08:44:37;53.50;;;22.48;;
74510;SDS011;62991;50.040;18.400;2023-05-18T08:47:44;67.70;;;28.33;;
74510;SDS011;62991;50.040;18.400;2023-05-18T08:50:47;69.82;;;30.80;;
74510;SDS011;62991;50.040;18.400;2023-05-18T08:53:52;68.15;;;31.60;;
74510;SDS011;62991;50.040;18.400;2023-05-18T08:56:53;64.13;;;30.15;;
74510;SDS011;62991;50.040;18.400;2023-05-18T08:59:56;62.13;;;30.15;;
74510;SDS011;62991;50.040;18.400;2023-05-18T09:02:58;66.07;;;30.40;;
74510;SDS011;62991;50.040;18.400;2023-05-18T09:05:59;62.53;;;30.10;;
74510;SDS011;62991;50.040;18.400;2023-05-18T09:09:00;59.45;;;28.42;;
74510;SDS011;62991;50.040;18.400;2023-05-18T09:12:05;55.17;;;27.30;;
74510;SDS011;62991;50.040;18.400;2023-05-18T09:15:10;51.13;;;22.55;;
74510;SDS011;62991;50.040;18.400;2023-05-18T09:18:11;59.28;;;25.80;;
74510;SDS011;62991;50.040;18.400;2023-05-18T09:21:12;52.55;;;26.63;;
74510;SDS011;62991;50.040;18.400;2023-05-18T09:24:13;64.53;;;26.63;;
74510;SDS011;62991;50.040;18.400;2023-05-18T09:27:14;60.20;;;25.77;;
74510;SDS011;62991;50.040;18.400;2023-05-18T09:30:15;59.08;;;25.83;;
74510;SDS011;62991;50.040;18.400;2023-05-18T09:33:16;57.92;;;27.30;;
74510;SDS011;62991;50.040;18.400;2023-05-18T09:36:24;52.60;;;24.90;;
74510;SDS011;62991;50.040;18.400;2023-05-18T09:39:25;55.95;;;24.33;;
74510;SDS011;62991;50.040;18.400;2023-05-18T09:42:39;52.75;;;25.63;;
74510;SDS011;62991;50.040;18.400;2023-05-18T09:45:44;48.85;;;23.13;;
74510;SDS011;62991;50.040;18.400;2023-05-18T09:48:51;53.88;;;23.45;;
74510;SDS011;62991;50.040;18.400;2023-05-18T09:51:53;45.30;;;23.42;;
74510;SDS011;62991;50.040;18.400;2023-05-18T09:54:57;45.88;;;21.63;;
74510;SDS011;62991;50.040;18.400;2023-05-18T09:58:01;48.30;;;21.75;;
74510;SDS011;62991;50.040;18.400;2023-05-18T10:01:03;39.83;;;19.52;;
74510;SDS011;62991;50.040;18.400;2023-05-18T10:04:04;47.08;;;23.02;;
74510;SDS011;62991;50.040;18.400;2023-05-18T10:07:09;48.95;;;20.58;;
74510;SDS011;62991;50.040;18.400;2023-05-18T10:10:11;42.33;;;18.90;;
74510;SDS011;62991;50.040;18.400;2023-05-18T10:13:13;45.88;;;21.40;;
74510;SDS011;62991;50.040;18.400;2023-05-18T10:16:18;46.38;;;21.55;;
74510;SDS011;62991;50.040;18.400;2023-05-18T10:19:19;41.90;;;20.25;;
74510;SDS011;62991;50.040;18.400;2023-05-18T10:22:20;39.08;;;19.50;;
74510;SDS011;62991;50.040;18.400;2023-05-18T10:25:23;40.80;;;20.08;;
74510;SDS011;62991;50.040;18.400;2023-05-18T10:28:27;27.98;;;13.65;;
74510;SDS011;62991;50.040;18.400;2023-05-18T10:31:31;38.05;;;16.85;;
74510;SDS011;62991;50.040;18.400;2023-05-18T10:34:36;28.50;;;13.55;;
74510;SDS011;62991;50.040;18.400;2023-05-18T10:37:40;29.63;;;14.07;;
74510;SDS011;62991;50.040;18.400;2023-05-18T10:41:04;30.45;;;13.10;;
74510;SDS011;62991;50.040;18.400;2023-05-18T10:44:06;14.55;;;5.13;;
74510;SDS011;62991;50.040;18.400;2023-05-18T10:47:07;18.48;;;6.53;;
74510;SDS011;62991;50.040;18.400;2023-05-18T10:50:10;16.33;;;6.25;;
74510;SDS011;62991;50.040;18.400;2023-05-18T10:53:11;14.52;;;6.43;;
74510;SDS011;62991;50.040;18.400;2023-05-18T10:56:16;15.50;;;6.43;;
74510;SDS011;62991;50.040;18.400;2023-05-18T11:02:18;15.60;;;6.18;;
74510;SDS011;62991;50.040;18.400;2023-05-18T11:05:23;11.65;;;5.10;;
74510;SDS011;62991;50.040;18.400;2023-05-18T11:08:24;14.07;;;6.03;;
74510;SDS011;62991;50.040;18.400;2023-05-18T11:11:26;11.55;;;4.80;;
74510;SDS011;62991;50.040;18.400;2023-05-18T11:14:31;13.20;;;5.50;;
74510;SDS011;62991;50.040;18.400;2023-05-18T11:17:32;12.85;;;5.47;;
74510;SDS011;62991;50.040;18.400;2023-05-18T11:20:32;12.73;;;5.30;;
74510;SDS011;62991;50.040;18.400;2023-05-18T11:23:33;11.90;;;5.50;;
74510;SDS011;62991;50.040;18.400;2023-05-18T11:26:37;9.38;;;4.82;;
74510;SDS011;62991;50.040;18.400;2023-05-18T11:29:40;11.68;;;4.85;;
74510;SDS011;62991;50.040;18.400;2023-05-18T11:32:49;9.32;;;3.83;;
74510;SDS011;62991;50.040;18.400;2023-05-18T11:35:54;11.93;;;5.28;;
74510;SDS011;62991;50.040;18.400;2023-05-18T11:39:01;9.23;;;4.22;;
74510;SDS011;62991;50.040;18.400;2023-05-18T11:45:09;11.55;;;3.72;;
74510;SDS011;62991;50.040;18.400;2023-05-18T11:48:11;8.20;;;4.10;;
74510;SDS011;62991;50.040;18.400;2023-05-18T11:51:11;8.30;;;3.35;;
74510;SDS011;62991;50.040;18.400;2023-05-18T11:54:12;6.50;;;3.10;;
74510;SDS011;62991;50.040;18.400;2023-05-18T11:57:14;7.40;;;3.08;;
74510;SDS011;62991;50.040;18.400;2023-05-18T12:00:16;4.78;;;1.80;;
74510;SDS011;62991;50.040;18.400;2023-05-18T12:03:22;10.82;;;2.13;;
74510;SDS011;62991;50.040;18.400;2023-05-18T12:06:24;5.90;;;2.00;;
74510;SDS011;62991;50.040;18.400;2023-05-18T12:09:26;4.18;;;1.73;;
74510;SDS011;62991;50.040;18.400;2023-05-18T12:12:30;5.15;;;1.70;;
74510;SDS011;62991;50.040;18.400;2023-05-18T12:15:33;4.18;;;1.80;;
74510;SDS011;62991;50.040;18.400;2023-05-18T12:18:37;2.92;;;1.50;;
74510;SDS011;62991;50.040;18.400;2023-05-18T12:21:38;6.10;;;1.63;;
74510;SDS011;62991;50.040;18.400;2023-05-18T12:24:39;5.78;;;1.50;;
74510;SDS011;62991;50.040;18.400;2023-05-18T12:27:41;4.30;;;1.45;;
74510;SDS011;62991;50.040;18.400;2023-05-18T12:30:43;4.18;;;1.50;;
74510;SDS011;62991;50.040;18.400;2023-05-18T12:33:44;5.80;;;1.83;;
74510;SDS011;62991;50.040;18.400;2023-05-18T12:36:51;4.32;;;1.60;;
74510;SDS011;62991;50.040;18.400;2023-05-18T12:39:55;3.17;;;1.52;;
74510;SDS011;62991;50.040;18.400;2023-05-18T12:42:58;5.30;;;1.75;;
74510;SDS011;62991;50.040;18.400;2023-05-18T12:46:00;5.00;;;1.52;;
74510;SDS011;62991;50.040;18.400;2023-05-18T12:49:02;12.60;;;3.08;;
74510;SDS011;62991;50.040;18.400;2023-05-18T12:52:11;6.63;;;2.35;;
74510;SDS011;62991;50.040;18.400;2023-05-18T12:55:19;10.52;;;2.20;;
74510;SDS011;62991;50.040;18.400;2023-05-18T12:58:20;5.28;;;2.38;;
74510;SDS011;62991;50.040;18.400;2023-05-18T13:01:21;7.70;;;2.10;;
74510;SDS011;62991;50.040;18.400;2023-05-18T13:04:31;7.75;;;2.30;;
74510;SDS011;62991;50.040;18.400;2023-05-18T13:07:41;7.20;;;2.15;;
74510;SDS011;62991;50.040;18.400;2023-05-18T13:10:42;5.07;;;2.38;;
74510;SDS011;62991;50.040;18.400;2023-05-18T13:13:57;6.93;;;2.33;;
74510;SDS011;62991;50.040;18.400;2023-05-18T13:16:58;7.63;;;2.30;;
74510;SDS011;62991;50.040;18.400;2023-05-18T13:19:59;8.85;;;2.20;;
74510;SDS011;62991;50.040;18.400;2023-05-18T13:23:07;8.32;;;2.25;;
74510;SDS011;62991;50.040;18.400;2023-05-18T13:26:12;5.30;;;1.80;;
74510;SDS011;62991;50.040;18.400;2023-05-18T13:29:14;8.45;;;2.30;;
74510;SDS011;62991;50.040;18.400;2023-05-18T13:32:14;8.52;;;2.67;;
74510;SDS011;62991;50.040;18.400;2023-05-18T13:35:15;9.20;;;2.00;;
74510;SDS011;62991;50.040;18.400;2023-05-18T13:38:17;9.68;;;2.42;;
74510;SDS011;62991;50.040;18.400;2023-05-18T13:41:18;6.15;;;2.03;;
74510;SDS011;62991;50.040;18.400;2023-05-18T13:44:19;4.18;;;2.33;;
74510;SDS011;62991;50.040;18.400;2023-05-18T13:47:19;3.95;;;2.20;;
74510;SDS011;62991;50.040;18.400;2023-05-18T13:50:20;7.57;;;2.30;;
74510;SDS011;62991;50.040;18.400;2023-05-18T13:53:22;7.38;;;2.20;;
74510;SDS011;62991;50.040;18.400;2023-05-18T13:56:23;8.88;;;2.10;;
74510;SDS011;62991;50.040;18.400;2023-05-18T13:59:23;5.95;;;1.90;;
74510;SDS011;62991;50.040;18.400;2023-05-18T14:02:24;6.50;;;2.05;;
74510;SDS011;62991;50.040;18.400;2023-05-18T14:05:25;7.72;;;2.45;;
74510;SDS011;62991;50.040;18.400;2023-05-18T14:08:26;9.43;;;2.17;;
74510;SDS011;62991;50.040;18.400;2023-05-18T14:11:26;6.00;;;2.15;;
74510;SDS011;62991;50.040;18.400;2023-05-18T14:14:27;5.93;;;2.13;;
74510;SDS011;62991;50.040;18.400;2023-05-18T14:17:28;7.13;;;2.65;;
74510;SDS011;62991;50.040;18.400;2023-05-18T14:20:28;5.35;;;2.30;;
74510;SDS011;62991;50.040;18.400;2023-05-18T14:23:29;5.20;;;2.40;;
74510;SDS011;62991;50.040;18.400;2023-05-18T14:26:30;6.22;;;2.28;;
74510;SDS011;62991;50.040;18.400;2023-05-18T14:29:31;6.82;;;2.30;;
74510;SDS011;62991;50.040;18.400;2023-05-18T14:32:32;9.00;;;2.40;;
74510;SDS011;62991;50.040;18.400;2023-05-18T14:35:33;5.72;;;2.40;;
74510;SDS011;62991;50.040;18.400;2023-05-18T14:38:33;8.75;;;2.33;;
74510;SDS011;62991;50.040;18.400;2023-05-18T14:41:34;6.78;;;2.17;;
74510;SDS011;62991;50.040;18.400;2023-05-18T14:44:35;5.13;;;2.28;;
74510;SDS011;62991;50.040;18.400;2023-05-18T14:47:35;3.78;;;2.38;;
74510;SDS011;62991;50.040;18.400;2023-05-18T14:50:36;5.93;;;2.28;;
74510;SDS011;62991;50.040;18.400;2023-05-18T14:53:37;4.57;;;2.08;;
74510;SDS011;62991;50.040;18.400;2023-05-18T14:56:37;5.53;;;2.17;;
74510;SDS011;62991;50.040;18.400;2023-05-18T14:59:38;4.53;;;1.77;;
74510;SDS011;62991;50.040;18.400;2023-05-18T15:02:39;5.32;;;2.05;;
74510;SDS011;62991;50.040;18.400;2023-05-18T15:05:41;7.13;;;2.42;;
74510;SDS011;62991;50.040;18.400;2023-05-18T15:08:44;5.50;;;2.33;;
74510;SDS011;62991;50.040;18.400;2023-05-18T15:11:45;8.18;;;2.33;;
74510;SDS011;62991;50.040;18.400;2023-05-18T15:14:46;3.47;;;2.10;;
74510;SDS011;62991;50.040;18.400;2023-05-18T15:17:46;5.85;;;2.60;;
74510;SDS011;62991;50.040;18.400;2023-05-18T15:20:47;13.35;;;2.85;;
74510;SDS011;62991;50.040;18.400;2023-05-18T15:23:47;12.50;;;3.33;;
74510;SDS011;62991;50.040;18.400;2023-05-18T15:26:48;13.45;;;3.92;;
74510;SDS011;62991;50.040;18.400;2023-05-18T15:29:49;9.68;;;4.00;;
74510;SDS011;62991;50.040;18.400;2023-05-18T15:32:50;14.65;;;4.35;;
74510;SDS011;62991;50.040;18.400;2023-05-18T15:35:50;15.70;;;3.03;;
74510;SDS011;62991;50.040;18.400;2023-05-18T15:38:51;10.38;;;3.13;;
74510;SDS011;62991;50.040;18.400;2023-05-18T15:41:52;7.05;;;2.88;;
74510;SDS011;62991;50.040;18.400;2023-05-18T15:44:52;8.55;;;2.80;;
74510;SDS011;62991;50.040;18.400;2023-05-18T15:47:53;9.18;;;2.92;;
74510;SDS011;62991;50.040;18.400;2023-05-18T15:50:53;6.22;;;2.90;;
74510;SDS011;62991;50.040;18.400;2023-05-18T15:53:54;11.57;;;3.17;;
74510;SDS011;62991;50.040;18.400;2023-05-18T15:56:55;12.73;;;2.70;;
74510;SDS011;62991;50.040;18.400;2023-05-18T15:59:55;12.93;;;3.33;;
74510;SDS011;62991;50.040;18.400;2023-05-18T16:02:56;9.85;;;2.65;;
74510;SDS011;62991;50.040;18.400;2023-05-18T16:05:57;8.30;;;2.97;;
74510;SDS011;62991;50.040;18.400;2023-05-18T16:08:57;6.43;;;2.90;;
74510;SDS011;62991;50.040;18.400;2023-05-18T16:11:58;9.27;;;2.78;;
74510;SDS011;62991;50.040;18.400;2023-05-18T16:14:59;6.47;;;2.30;;
74510;SDS011;62991;50.040;18.400;2023-05-18T16:17:59;5.88;;;2.20;;
74510;SDS011;62991;50.040;18.400;2023-05-18T16:21:00;5.25;;;2.58;;
74510;SDS011;62991;50.040;18.400;2023-05-18T16:24:01;11.32;;;3.00;;
74510;SDS011;62991;50.040;18.400;2023-05-18T16:27:02;9.70;;;3.58;;
74510;SDS011;62991;50.040;18.400;2023-05-18T16:30:02;12.93;;;3.20;;
74510;SDS011;62991;50.040;18.400;2023-05-18T16:33:03;6.65;;;2.90;;
74510;SDS011;62991;50.040;18.400;2023-05-18T16:36:04;8.48;;;2.50;;
74510;SDS011;62991;50.040;18.400;2023-05-18T16:39:06;6.07;;;2.72;;
74510;SDS011;62991;50.040;18.400;2023-05-18T16:42:06;7.45;;;2.65;;
74510;SDS011;62991;50.040;18.400;2023-05-18T16:45:08;11.50;;;3.95;;
74510;SDS011;62991;50.040;18.400;2023-05-18T16:48:09;7.15;;;2.83;;
74510;SDS011;62991;50.040;18.400;2023-05-18T16:51:10;11.02;;;2.90;;
74510;SDS011;62991;50.040;18.400;2023-05-18T16:54:11;8.07;;;2.70;;
74510;SDS011;62991;50.040;18.400;2023-05-18T16:57:11;9.20;;;4.10;;
74510;SDS011;62991;50.040;18.400;2023-05-18T17:00:12;7.05;;;2.97;;
74510;SDS011;62991;50.040;18.400;2023-05-18T17:03:13;7.50;;;2.70;;
74510;SDS011;62991;50.040;18.400;2023-05-18T17:06:16;4.82;;;2.70;;
74510;SDS011;62991;50.040;18.400;2023-05-18T17:09:19;6.53;;;2.53;;
74510;SDS011;62991;50.040;18.400;2023-05-18T17:12:30;7.72;;;2.72;;
74510;SDS011;62991;50.040;18.400;2023-05-18T17:15:31;8.52;;;2.95;;
74510;SDS011;62991;50.040;18.400;2023-05-18T17:18:32;5.38;;;2.50;;
74510;SDS011;62991;50.040;18.400;2023-05-18T17:21:33;5.10;;;2.20;;
74510;SDS011;62991;50.040;18.400;2023-05-18T17:24:34;5.88;;;2.58;;
74510;SDS011;62991;50.040;18.400;2023-05-18T17:27:35;5.43;;;2.83;;
74510;SDS011;62991;50.040;18.400;2023-05-18T17:30:36;4.75;;;2.38;;
74510;SDS011;62991;50.040;18.400;2023-05-18T17:33:36;7.15;;;2.70;;
74510;SDS011;62991;50.040;18.400;2023-05-18T17:36:37;4.38;;;2.47;;
74510;SDS011;62991;50.040;18.400;2023-05-18T17:39:38;4.93;;;2.40;;
74510;SDS011;62991;50.040;18.400;2023-05-18T17:42:38;5.13;;;2.33;;
74510;SDS011;62991;50.040;18.400;2023-05-18T17:45:39;5.40;;;2.22;;
74510;SDS011;62991;50.040;18.400;2023-05-18T17:48:40;5.72;;;2.58;;
74510;SDS011;62991;50.040;18.400;2023-05-18T17:51:40;6.13;;;2.63;;
74510;SDS011;62991;50.040;18.400;2023-05-18T17:54:41;6.40;;;2.47;;
74510;SDS011;62991;50.040;18.400;2023-05-18T17:57:42;6.45;;;2.40;;
74510;SDS011;62991;50.040;18.400;2023-05-18T18:00:45;3.95;;;2.00;;
74510;SDS011;62991;50.040;18.400;2023-05-18T18:03:46;6.43;;;2.28;;